createdAt,value
2023-11-15T04:22:49.486Z,6.65
2023-11-15T04:25:52.651Z,6.59
2023-11-15T04:28:54.924Z,6.57
2023-11-15T04:31:57.373Z,6.59
2023-11-15T04:34:59.562Z,6.55
2023-11-15T04:38:04.610Z,6.55
2023-11-15T04:41:08.050Z,6.61
2023-11-15T04:44:11.130Z,6.62
2023-11-15T04:47:13.402Z,6.59
2023-11-15T04:50:15.939Z,6.61
2023-11-15T04:53:18.082Z,6.61
2023-11-15T04:56:20.651Z,6.65
2023-11-15T04:59:22.837Z,6.62
2023-11-15T05:02:28.468Z,6.58
2023-11-15T05:05:30.869Z,6.64
2023-11-15T05:08:33.347Z,6.60
2023-11-15T05:11:35.864Z,6.62
2023-11-15T05:14:38.402Z,6.54
2023-11-15T05:17:40.625Z,6.58
2023-11-15T05:20:45.032Z,6.61
2023-11-15T05:23:47.190Z,6.57
2023-11-15T05:26:51.385Z,6.53
2023-11-15T05:29:53.647Z,6.48
2023-11-15T05:32:56.203Z,6.40
2023-11-15T05:35:58.440Z,6.35
2023-11-15T05:39:00.929Z,6.26
2023-11-15T05:42:03.390Z,6.17
2023-11-15T05:45:06.550Z,6.11
2023-11-15T05:48:08.808Z,6.09
2023-11-15T05:51:11.334Z,6.10
2023-11-15T05:54:13.617Z,6.11
2023-11-15T05:57:16.113Z,6.08
2023-11-15T06:00:22.094Z,6.26
2023-11-15T06:03:25.377Z,6.25
2023-11-15T06:06:28.889Z,6.40
2023-11-15T06:09:31.659Z,6.38
2023-11-15T06:12:33.810Z,6.38
2023-11-15T06:15:36.281Z,6.46
2023-11-15T06:18:39.541Z,6.43
2023-11-15T06:21:45.555Z,6.49
2023-11-15T06:24:47.821Z,6.61
2023-11-15T06:27:50.414Z,6.65
2023-11-15T06:30:53.254Z,6.93
2023-11-15T06:33:56.061Z,7.16
2023-11-15T06:36:59.722Z,7.58
2023-11-15T06:40:08.604Z,7.74
2023-11-15T06:43:12.890Z,7.87
2023-11-15T06:46:20.910Z,8.22
2023-11-15T06:49:23.783Z,8.50
2023-11-15T06:52:26.434Z,8.57
2023-11-15T06:55:28.909Z,8.55
2023-11-15T06:58:31.681Z,8.61
2023-11-15T07:01:34.052Z,8.74
2023-11-15T07:04:39.646Z,8.72
2023-11-15T07:07:42.080Z,8.79
2023-11-15T07:10:47.718Z,9.15
2023-11-15T07:13:50.214Z,9.37
2023-11-15T07:16:59.748Z,9.57
2023-11-15T07:20:02.079Z,9.68
2023-11-15T07:23:04.894Z,9.55
2023-11-15T07:26:07.536Z,9.50
2023-11-15T07:29:15.155Z,9.73
2023-11-15T07:32:18.435Z,9.75
2023-11-15T07:35:21.604Z,10.08
2023-11-15T07:38:24.816Z,10.17
2023-11-15T07:45:37.574Z,10.54
2023-11-15T07:48:40.706Z,10.28
2023-11-15T07:51:43.638Z,10.09
2023-11-15T07:54:46.191Z,10.03
2023-11-15T07:57:48.355Z,10.46
2023-11-15T08:00:52.052Z,10.24
2023-11-15T08:03:54.911Z,10.20
2023-11-15T08:06:57.521Z,10.35
2023-11-15T08:10:00.576Z,10.61
2023-11-15T08:13:03.502Z,10.84
2023-11-15T08:16:12.179Z,11.02
2023-11-15T08:19:14.834Z,11.01
2023-11-15T08:22:17.389Z,11.20
2023-11-15T08:25:21.909Z,11.47
2023-11-15T08:28:26.871Z,11.58
2023-11-15T08:31:29.818Z,11.56
2023-11-15T08:34:33.185Z,11.42
2023-11-15T08:37:35.679Z,11.49
2023-11-15T08:40:38.902Z,11.35
2023-11-15T08:43:41.102Z,11.28
2023-11-15T08:46:44.069Z,11.36
2023-11-15T08:49:46.346Z,11.58
2023-11-15T08:52:49.573Z,11.53
2023-11-15T08:55:52.305Z,11.68
2023-11-15T08:58:55.459Z,11.74
2023-11-15T09:01:57.927Z,11.82
2023-11-15T09:05:10.141Z,11.65
2023-11-15T09:08:12.442Z,11.75
2023-11-15T09:11:14.958Z,11.70
2023-11-15T09:14:17.546Z,11.85
2023-11-15T09:17:22.162Z,11.78
2023-11-15T09:20:28.740Z,11.72
2023-11-15T09:23:37.597Z,11.73
2023-11-15T09:26:40.039Z,11.47
2023-11-15T09:29:42.561Z,11.74
2023-11-15T09:32:46.422Z,11.86
2023-11-15T09:35:55.014Z,11.80
2023-11-15T09:39:04.654Z,11.82
2023-11-15T09:42:10.882Z,11.74
2023-11-15T09:45:18.580Z,11.69
2023-11-15T09:48:23.119Z,11.66
2023-11-15T09:51:26.127Z,11.67
2023-11-15T09:54:30.317Z,11.77
2023-11-15T09:57:37.274Z,11.70
2023-11-15T10:00:41.303Z,11.69
2023-11-15T10:03:43.939Z,11.59
2023-11-15T10:06:46.615Z,11.59
2023-11-15T10:09:49.131Z,11.74
2023-11-15T10:12:55.861Z,11.77
2023-11-15T10:15:59.015Z,11.78
2023-11-15T10:19:01.708Z,11.67
2023-11-15T10:22:06.620Z,11.66
2023-11-15T10:25:09.829Z,11.72
2023-11-15T10:28:14.201Z,11.71
2023-11-15T10:31:19.921Z,11.69
2023-11-15T10:34:34.102Z,11.79
2023-11-15T10:37:49.783Z,11.95
2023-11-15T10:40:53.566Z,11.93
2023-11-15T10:43:56.896Z,11.84
2023-11-15T10:47:02.920Z,11.96
2023-11-15T10:50:09.666Z,11.99
2023-11-15T10:53:12.952Z,12.03
2023-11-15T10:56:20.674Z,12.14
2023-11-15T10:59:26.504Z,12.00
2023-11-15T11:02:32.955Z,12.19
2023-11-15T11:06:04.362Z,12.28
2023-11-15T11:09:23.636Z,12.05
2023-11-15T11:12:26.701Z,12.06
2023-11-15T11:15:33.443Z,12.16
2023-11-15T11:18:37.135Z,12.46
2023-11-15T11:22:07.997Z,12.46
2023-11-15T11:25:11.966Z,12.37
2023-11-15T11:28:15.035Z,12.55
2023-11-15T11:31:21.035Z,12.66
2023-11-15T11:34:26.013Z,13.59
2023-11-15T11:37:44.671Z,15.01
2023-11-15T11:40:48.620Z,14.02
2023-11-15T11:43:57.865Z,13.41
2023-11-15T11:47:03.916Z,14.34
2023-11-15T11:50:09.589Z,13.95
2023-11-15T11:53:12.628Z,14.98
2023-11-15T11:56:15.396Z,13.92
2023-11-15T11:59:18.273Z,13.38
2023-11-15T12:02:32.715Z,13.22
2023-11-15T12:05:35.759Z,13.05
2023-11-15T12:08:40.339Z,12.99
2023-11-15T12:11:46.030Z,13.03
2023-11-15T12:14:52.800Z,12.87
2023-11-15T12:18:00.530Z,12.98
2023-11-15T12:21:03.232Z,12.89
2023-11-15T12:24:07.595Z,13.02
2023-11-15T12:27:10.616Z,12.99
2023-11-15T12:30:13.414Z,12.77
2023-11-15T12:33:16.219Z,12.78
2023-11-15T12:36:20.298Z,12.65
2023-11-15T12:39:23.496Z,12.64
2023-11-15T12:42:29.616Z,12.79
2023-11-15T12:45:33.744Z,12.84
2023-11-15T12:48:41.902Z,12.78
2023-11-15T12:51:48.674Z,12.99
2023-11-15T12:54:57.665Z,12.90
2023-11-15T12:57:59.877Z,12.61
2023-11-15T13:01:08.516Z,12.75
2023-11-15T13:04:13.618Z,12.55
2023-11-15T13:07:19.242Z,12.50
2023-11-15T13:10:21.505Z,12.30
2023-11-15T13:13:27.229Z,12.35
2023-11-15T13:16:29.584Z,12.50
2023-11-15T13:19:32.057Z,12.55
2023-11-15T13:22:35.410Z,12.47
2023-11-15T13:25:39.140Z,12.58
2023-11-15T13:28:43.333Z,12.44
2023-11-15T13:31:45.828Z,12.55
2023-11-15T13:34:51.649Z,12.54
2023-11-15T13:37:57.216Z,12.66
2023-11-15T13:41:00.139Z,12.58
2023-11-15T13:44:02.966Z,12.79
2023-11-15T13:47:07.938Z,12.71
2023-11-15T13:50:12.122Z,12.64
2023-11-15T13:53:14.807Z,12.65
2023-11-15T13:56:17.489Z,12.64
2023-11-15T13:59:21.340Z,12.57
2023-11-15T14:02:24.894Z,12.56
2023-11-15T14:05:27.459Z,12.46
2023-11-15T14:08:47.010Z,12.52
2023-11-15T14:12:00.629Z,12.48
2023-11-15T14:15:03.614Z,12.48
2023-11-15T14:18:06.203Z,12.43
2023-11-15T14:21:08.660Z,12.53
2023-11-15T14:24:12.148Z,12.32
2023-11-15T14:27:17.207Z,12.23
2023-11-15T14:30:22.872Z,12.18
2023-11-15T14:33:25.269Z,12.23
2023-11-15T14:36:28.631Z,12.14
2023-11-15T14:39:32.843Z,12.10
2023-11-15T14:42:35.592Z,12.19
2023-11-15T14:45:37.823Z,12.03
2023-11-15T14:48:40.407Z,12.00
2023-11-15T14:51:49.492Z,11.97
2023-11-15T14:54:52.239Z,11.97
2023-11-15T14:57:54.802Z,11.87
2023-11-15T15:00:57.527Z,11.82
2023-11-15T15:04:00.204Z,11.84
2023-11-15T15:07:03.146Z,11.85
2023-11-15T15:10:10.201Z,11.84
2023-11-15T15:13:13.984Z,11.84
2023-11-15T15:16:17.791Z,11.83
2023-11-15T15:19:22.274Z,11.73
2023-11-15T15:22:27.347Z,11.71
2023-11-15T15:25:31.757Z,11.76
2023-11-15T15:28:34.479Z,11.71
2023-11-15T15:31:38.018Z,11.70
2023-11-15T15:34:41.730Z,11.67
2023-11-15T15:37:48.046Z,11.62
2023-11-15T15:40:50.341Z,11.61
2023-11-15T15:43:55.720Z,11.59
2023-11-15T15:46:59.180Z,11.48
2023-11-15T15:50:01.903Z,11.53
2023-11-15T15:53:04.082Z,11.51
2023-11-15T15:56:06.895Z,11.62
2023-11-15T15:59:09.486Z,11.58
2023-11-15T16:02:12.138Z,11.63
2023-11-15T16:05:19.300Z,11.60
2023-11-15T16:08:21.626Z,11.66
2023-11-15T16:11:24.353Z,11.60
2023-11-15T16:14:26.660Z,11.78
2023-11-15T16:17:35.311Z,11.64
2023-11-15T16:20:38.598Z,11.62
2023-11-15T16:23:42.215Z,11.67
2023-11-15T16:26:44.883Z,11.49
2023-11-15T16:29:48.084Z,11.54
2023-11-15T16:32:50.317Z,11.40
2023-11-15T16:35:52.789Z,11.28
2023-11-15T16:38:54.993Z,11.20
2023-11-15T16:41:58.586Z,11.28
